createdAt,value
2018-12-06T00:01:55.889Z,101206.73
2018-12-06T00:04:25.343Z,101208.24
2018-12-06T00:06:54.184Z,101203.72
2018-12-06T00:09:23.001Z,101191.83
2018-12-06T00:11:52.795Z,101187.83
2018-12-06T00:14:21.595Z,101189.13
2018-12-06T00:16:59.116Z,101189.64
2018-12-06T00:19:27.900Z,101184.70
2018-12-06T00:21:56.810Z,101181.17
2018-12-06T00:24:25.623Z,101180.09
2018-12-06T00:26:54.487Z,101179.20
2018-12-06T00:29:23.320Z,101182.98
2018-12-06T00:31:52.878Z,101183.20
2018-12-06T00:34:21.710Z,101188.46
2018-12-06T00:36:50.506Z,101175.06
2018-12-06T00:39:19.315Z,101175.92
2018-12-06T00:41:48.131Z,101177.64
2018-12-06T00:44:16.934Z,101170.11
2018-12-06T00:46:45.764Z,101175.20
2018-12-06T00:49:15.499Z,101171.55
2018-12-06T00:51:44.584Z,101174.42
2018-12-06T00:54:13.410Z,101169.38
2018-12-06T00:56:42.247Z,101169.17
2018-12-06T00:59:14.722Z,101168.41
2018-12-06T01:01:43.599Z,101168.53
2018-12-06T01:04:12.389Z,101169.13
2018-12-06T01:06:41.208Z,101176.59
2018-12-06T01:09:10.013Z,101172.84
2018-12-06T01:11:38.833Z,101176.03
2018-12-06T01:14:07.637Z,101176.67
2018-12-06T01:16:36.675Z,101166.72
2018-12-06T01:19:06.500Z,101174.78
2018-12-06T01:21:35.732Z,101169.52
2018-12-06T01:24:05.075Z,101173.10
2018-12-06T01:26:33.885Z,101171.03
2018-12-06T01:29:02.676Z,101172.54
2018-12-06T01:31:33.562Z,101170.86
2018-12-06T01:34:03.027Z,101176.72
2018-12-06T01:36:33.236Z,101167.67
2018-12-06T01:39:02.130Z,101165.17
2018-12-06T01:41:31.500Z,101159.22
2018-12-06T01:44:00.619Z,101152.24
2018-12-06T01:46:29.431Z,101146.59
2018-12-06T01:48:58.327Z,101145.39
2018-12-06T01:51:27.931Z,101152.45
2018-12-06T01:53:56.755Z,101142.24
2018-12-06T01:56:25.570Z,101141.85
2018-12-06T01:58:55.044Z,101149.70
2018-12-06T02:01:23.948Z,101143.75
2018-12-06T02:03:52.756Z,101142.84
2018-12-06T02:06:21.592Z,101139.99
2018-12-06T02:08:51.111Z,101146.55
2018-12-06T02:11:19.916Z,101151.94
2018-12-06T02:13:48.718Z,101156.33
2018-12-06T02:16:17.668Z,101168.99
2018-12-06T02:18:46.511Z,101172.18
2018-12-06T02:21:15.326Z,101167.91
2018-12-06T02:23:44.191Z,101160.36
2018-12-06T02:26:14.685Z,101162.65
2018-12-06T02:28:43.538Z,101164.16
2018-12-06T02:31:12.652Z,101165.97
2018-12-06T02:33:42.142Z,101173.16
2018-12-06T02:36:11.673Z,101169.79
2018-12-06T02:38:40.489Z,101169.88
2018-12-06T02:41:09.307Z,101171.30
2018-12-06T02:43:38.101Z,101168.41
2018-12-06T02:46:06.936Z,101168.14
2018-12-06T02:48:35.727Z,101162.66
2018-12-06T02:51:04.992Z,101149.72
2018-12-06T02:53:33.795Z,101146.75
2018-12-06T02:56:02.601Z,101157.48
2018-12-06T02:58:32.136Z,101169.85
2018-12-06T03:01:00.947Z,101163.89
2018-12-06T03:03:30.067Z,101152.94
2018-12-06T03:05:58.899Z,101151.38
2018-12-06T03:08:28.248Z,101144.60
2018-12-06T03:10:57.052Z,101142.52
2018-12-06T03:13:25.882Z,101138.46
2018-12-06T03:15:54.896Z,101135.56
2018-12-06T03:18:23.704Z,101143.53
2018-12-06T03:20:52.518Z,101142.88
2018-12-06T03:23:21.372Z,101127.82
2018-12-06T03:25:50.235Z,101128.37
2018-12-06T03:28:19.027Z,101120.67
2018-12-06T03:30:48.025Z,101134.41
2018-12-06T03:33:16.871Z,101138.81
2018-12-06T03:35:45.698Z,101135.52
2018-12-06T03:38:14.498Z,101135.64
2018-12-06T03:40:44.527Z,101125.88
2018-12-06T03:43:13.373Z,101132.56
2018-12-06T03:45:42.202Z,101136.13
2018-12-06T03:48:11.601Z,101146.25
2018-12-06T03:50:40.535Z,101140.56
2018-12-06T03:53:10.000Z,101145.20
2018-12-06T03:55:38.847Z,101155.55
2018-12-06T03:58:07.652Z,101155.72
2018-12-06T04:00:36.483Z,101152.03
2018-12-06T04:03:05.520Z,101156.03
2018-12-06T04:05:35.044Z,101162.59
2018-12-06T04:08:03.852Z,101172.86
2018-12-06T04:10:32.725Z,101175.93
2018-12-06T04:13:01.695Z,101180.84
2018-12-06T04:15:30.573Z,101181.73
2018-12-06T04:17:59.384Z,101188.81
2018-12-06T04:20:28.687Z,101188.63
2018-12-06T04:22:58.157Z,101187.84
2018-12-06T04:25:26.959Z,101182.74
2018-12-06T04:27:55.826Z,101178.38
2018-12-06T04:30:25.106Z,101172.39
2018-12-06T04:32:53.924Z,101178.08
2018-12-06T04:35:22.735Z,101178.77
2018-12-06T04:37:51.554Z,101183.06
2018-12-06T04:40:20.364Z,101191.94
2018-12-06T04:42:49.210Z,101195.05
2018-12-06T04:45:18.039Z,101199.13
2018-12-06T04:47:47.563Z,101200.52
2018-12-06T04:50:16.365Z,101201.53
2018-12-06T04:52:45.205Z,101196.83
2018-12-06T04:55:14.018Z,101186.59
2018-12-06T04:57:43.549Z,101180.23
2018-12-06T05:00:12.387Z,101168.27
2018-12-06T05:02:41.187Z,101164.49
2018-12-06T05:05:10.545Z,101170.16
2018-12-06T05:07:39.788Z,101167.95
2018-12-06T05:10:08.688Z,101164.19
2018-12-06T05:12:37.521Z,101161.71
2018-12-06T05:15:06.351Z,101176.35
2018-12-06T05:17:35.989Z,101187.19
2018-12-06T05:20:05.253Z,101180.72
2018-12-06T05:22:34.055Z,101182.64
2018-12-06T05:25:02.882Z,101180.52
2018-12-06T05:27:31.700Z,101181.94
2018-12-06T05:30:01.479Z,101197.17
2018-12-06T05:32:31.366Z,101195.99
2018-12-06T05:35:00.190Z,101202.16
2018-12-06T05:37:29.033Z,101209.55
2018-12-06T05:40:01.115Z,101212.14
2018-12-06T05:42:31.789Z,101199.69
2018-12-06T05:45:00.622Z,101194.90
2018-12-06T05:47:29.430Z,101194.39
2018-12-06T05:49:58.275Z,101196.98
2018-12-06T05:52:27.112Z,101210.17
2018-12-06T05:54:55.959Z,101205.08
2018-12-06T05:57:24.792Z,101214.27
2018-12-06T05:59:53.613Z,101212.27
2018-12-06T06:02:37.785Z,101214.16
2018-12-06T06:05:15.125Z,101215.56
2018-12-06T06:07:43.963Z,101217.65
2018-12-06T06:10:13.328Z,101229.51
2018-12-06T06:12:42.826Z,101236.89
2018-12-06T06:15:11.695Z,101245.58
2018-12-06T06:17:41.203Z,101250.45
2018-12-06T06:20:12.769Z,101243.30
2018-12-06T06:22:41.612Z,101244.98
2018-12-06T06:25:10.516Z,101261.53
2018-12-06T06:27:39.952Z,101259.14
2018-12-06T06:30:08.855Z,101261.45
2018-12-06T06:32:38.335Z,101265.34
2018-12-06T06:35:08.275Z,101271.12
2018-12-06T06:37:41.408Z,101270.41
2018-12-06T06:40:10.188Z,101264.84
2018-12-06T06:42:39.061Z,101275.80
2018-12-06T06:45:07.889Z,101280.20
2018-12-06T06:47:36.710Z,101275.53
2018-12-06T06:50:05.612Z,101286.61
2018-12-06T06:52:34.443Z,101294.86
2018-12-06T06:55:03.312Z,101286.30
2018-12-06T06:57:33.111Z,101286.02
2018-12-06T07:00:01.931Z,101288.81
2018-12-06T07:02:30.747Z,101292.20
2018-12-06T07:04:59.559Z,101299.98
2018-12-06T07:07:28.914Z,101308.34
2018-12-06T07:09:57.708Z,101325.72
2018-12-06T07:12:26.535Z,101311.77
2018-12-06T07:14:55.338Z,101314.13
2018-12-06T07:17:27.699Z,101321.63
2018-12-06T07:19:56.556Z,101334.80
2018-12-06T07:22:25.397Z,101330.91
2018-12-06T07:24:54.220Z,101335.78
2018-12-06T07:27:23.039Z,101338.11
2018-12-06T07:29:52.121Z,101339.48
2018-12-06T07:32:20.959Z,101340.39
2018-12-06T07:34:49.849Z,101337.01
2018-12-06T07:37:18.664Z,101335.52
2018-12-06T07:39:47.504Z,101322.43
2018-12-06T07:42:16.377Z,101323.05
2018-12-06T07:44:45.241Z,101322.35
2018-12-06T07:47:14.051Z,101325.84
2018-12-06T07:49:42.951Z,101323.84
2018-12-06T07:52:12.761Z,101322.03
2018-12-06T07:54:41.706Z,101332.34
2018-12-06T07:57:10.861Z,101331.23
2018-12-06T07:59:40.276Z,101323.96
2018-12-06T08:02:10.273Z,101318.45
2018-12-06T08:04:39.260Z,101318.66
2018-12-06T08:07:08.119Z,101319.55
2018-12-06T08:09:37.862Z,101312.28
2018-12-06T08:12:07.359Z,101316.48
2018-12-06T08:14:36.156Z,101323.56
2018-12-06T08:17:04.993Z,101326.23
2018-12-06T08:19:34.132Z,101330.64
2018-12-06T08:22:03.914Z,101336.84
2018-12-06T08:24:34.165Z,101352.14
2018-12-06T08:27:03.074Z,101350.06
2018-12-06T08:29:31.872Z,101345.45
2018-12-06T08:32:02.377Z,101343.77
2018-12-06T08:34:32.767Z,101351.23
2018-12-06T08:37:02.108Z,101347.53
2018-12-06T08:39:30.949Z,101340.84
2018-12-06T08:41:59.799Z,101345.84
2018-12-06T08:44:28.627Z,101346.34
2018-12-06T08:46:57.450Z,101349.45
2018-12-06T08:49:26.297Z,101347.84
2018-12-06T08:51:55.237Z,101355.34
2018-12-06T08:54:24.068Z,101367.62
2018-12-06T08:56:52.878Z,101369.82
2018-12-06T08:59:22.728Z,101371.70
2018-12-06T09:01:51.548Z,101379.10
2018-12-06T09:04:20.350Z,101375.80
2018-12-06T09:06:49.184Z,101375.00
2018-12-06T09:09:17.999Z,101382.09
2018-12-06T09:11:46.824Z,101388.69
2018-12-06T09:14:15.636Z,101394.47
2018-12-06T09:16:44.504Z,101400.06
2018-12-06T09:19:14.749Z,101397.47
2018-12-06T09:21:42.167Z,101398.38
2018-12-06T09:24:11.001Z,101401.48
2018-12-06T09:26:39.827Z,101403.68
2018-12-06T09:29:08.629Z,101405.05
2018-12-06T09:31:37.432Z,101409.46
2018-12-06T09:34:07.229Z,101413.24
2018-12-06T09:36:37.286Z,101418.63
2018-12-06T09:39:09.256Z,101414.06
2018-12-06T09:41:38.175Z,101408.04
2018-12-06T09:44:07.057Z,101417.05
2018-12-06T09:46:35.871Z,101412.25
2018-12-06T09:49:05.085Z,101405.05
2018-12-06T09:51:33.916Z,101406.14
2018-12-06T09:54:02.746Z,101418.03
2018-12-06T09:56:31.642Z,101416.95
2018-12-06T09:59:01.716Z,101427.62
2018-12-06T10:01:30.550Z,101419.14
2018-12-06T10:03:59.368Z,101421.03
2018-12-06T10:06:28.184Z,101428.30
2018-12-06T10:08:57.007Z,101430.22
2018-12-06T10:11:25.823Z,101432.11
2018-12-06T10:13:54.631Z,101439.98
2018-12-06T10:16:24.852Z,101444.50
2018-12-06T10:18:53.672Z,101440.60
2018-12-06T10:21:22.516Z,101453.88
2018-12-06T10:23:51.358Z,101447.98
2018-12-06T10:26:20.292Z,101453.30
2018-12-06T10:28:49.103Z,101448.17
2018-12-06T10:31:17.928Z,101452.58
2018-12-06T10:33:46.752Z,101450.37
2018-12-06T10:36:16.375Z,101457.70
2018-12-06T10:38:45.241Z,101459.00
2018-12-06T10:41:14.108Z,101459.88
2018-12-06T10:43:43.031Z,101460.71
2018-12-06T10:46:11.886Z,101457.72
2018-12-06T10:48:40.704Z,101446.50
2018-12-06T10:51:20.964Z,101448.50
2018-12-06T10:53:50.048Z,101450.30
2018-12-06T10:56:19.601Z,101448.09
2018-12-06T10:58:48.403Z,101455.39
2018-12-06T11:01:18.799Z,101449.60
2018-12-06T11:03:52.921Z,101450.91
2018-12-06T11:06:21.735Z,101451.02
2018-12-06T11:08:50.603Z,101447.59
2018-12-06T11:11:19.386Z,101448.61
2018-12-06T11:13:48.218Z,101454.08
2018-12-06T11:16:17.058Z,101455.28
2018-12-06T11:18:45.952Z,101435.66
2018-12-06T11:21:14.820Z,101431.84
2018-12-06T11:23:43.704Z,101444.03
2018-12-06T11:26:12.608Z,101434.39
2018-12-06T11:28:41.353Z,101451.52
2018-12-06T11:31:10.200Z,101450.41
2018-12-06T11:33:39.298Z,101440.98
2018-12-06T11:36:08.097Z,101433.36
2018-12-06T11:38:36.978Z,101437.05
2018-12-06T11:41:05.815Z,101434.84
2018-12-06T11:43:34.663Z,101433.87
2018-12-06T11:46:03.493Z,101442.47
2018-12-06T11:48:32.328Z,101443.26
2018-12-06T11:51:01.140Z,101436.87
2018-12-06T11:53:30.011Z,101442.39
2018-12-06T11:55:58.881Z,101446.69
2018-12-06T11:58:27.780Z,101438.06
2018-12-06T12:00:56.592Z,101442.97
2018-12-06T12:03:25.482Z,101441.46
2018-12-06T12:05:58.509Z,101438.86
2018-12-06T12:08:23.123Z,101436.33
2018-12-06T12:10:51.992Z,101444.86
2018-12-06T12:13:20.828Z,101444.67
2018-12-06T12:15:49.683Z,101442.78
2018-12-06T12:18:18.531Z,101428.09
2018-12-06T12:20:47.363Z,101437.08
2018-12-06T12:23:16.282Z,101432.27
2018-12-06T12:25:45.097Z,101429.67
2018-12-06T12:28:13.973Z,101424.98
2018-12-06T12:30:42.912Z,101421.98
2018-12-06T12:33:11.724Z,101420.28
2018-12-06T12:35:41.205Z,101419.38
2018-12-06T12:38:10.001Z,101426.47
2018-12-06T12:40:38.816Z,101422.67
2018-12-06T12:43:07.672Z,101422.02
2018-12-06T12:45:36.527Z,101419.53
2018-12-06T12:48:05.400Z,101415.63
2018-12-06T12:50:34.255Z,101417.33
2018-12-06T12:53:03.583Z,101423.94
2018-12-06T12:55:32.431Z,101415.73
2018-12-06T12:58:01.384Z,101422.72
2018-12-06T13:00:30.251Z,101420.33
2018-12-06T13:02:59.067Z,101422.93
2018-12-06T13:05:27.862Z,101429.94
2018-12-06T13:07:56.816Z,101426.94
2018-12-06T13:10:25.618Z,101427.55
2018-12-06T13:12:54.408Z,101428.27
2018-12-06T13:15:23.285Z,101429.78
2018-12-06T13:17:52.108Z,101434.41
2018-12-06T13:20:20.948Z,101433.71
2018-12-06T13:22:49.829Z,101434.39
2018-12-06T13:25:18.631Z,101447.02
2018-12-06T13:27:47.488Z,101437.73
2018-12-06T13:30:16.343Z,101436.25
2018-12-06T13:32:45.256Z,101429.75
2018-12-06T13:35:14.030Z,101427.04
2018-12-06T13:37:42.929Z,101422.23
2018-12-06T13:40:12.337Z,101424.25
2018-12-06T13:42:41.172Z,101419.05
2018-12-06T13:45:11.016Z,101423.67
2018-12-06T13:47:39.797Z,101426.34
2018-12-06T13:50:10.720Z,101415.76
2018-12-06T13:52:39.624Z,101426.27
2018-12-06T13:55:08.441Z,101421.36
2018-12-06T13:57:38.157Z,101433.95
2018-12-06T14:00:07.980Z,101437.78
2018-12-06T14:02:36.791Z,101442.79
2018-12-06T14:05:05.637Z,101441.27
2018-12-06T14:07:34.492Z,101443.20
2018-12-06T14:10:04.040Z,101445.69
2018-12-06T14:12:33.503Z,101431.71
2018-12-06T14:15:02.299Z,101422.19
2018-12-06T14:17:31.107Z,101416.91
2018-12-06T14:19:59.962Z,101422.62
2018-12-06T14:22:28.805Z,101416.52
2018-12-06T14:24:58.603Z,101423.02
2018-12-06T14:27:27.644Z,101424.70
2018-12-06T14:29:56.495Z,101420.02
2018-12-06T14:32:25.299Z,101431.71
2018-12-06T14:34:54.164Z,101428.21
2018-12-06T14:37:22.978Z,101418.29
2018-12-06T14:39:51.864Z,101407.02
2018-12-06T14:42:20.804Z,101408.72
2018-12-06T14:44:49.853Z,101408.40
2018-12-06T14:47:18.648Z,101397.92
2018-12-06T14:49:47.472Z,101410.81
2018-12-06T14:52:16.313Z,101403.02
2018-12-06T14:54:45.365Z,101393.41
2018-12-06T14:57:14.216Z,101386.33
2018-12-06T14:59:43.166Z,101382.03
2018-12-06T15:02:12.047Z,101383.73
2018-12-06T15:04:47.929Z,101383.65
2018-12-06T15:07:24.267Z,101398.42
2018-12-06T15:09:54.190Z,101401.41
2018-12-06T15:12:55.480Z,101400.54
2018-12-06T15:15:26.080Z,101398.15
2018-12-06T15:17:54.971Z,101399.45
2018-12-06T15:20:23.793Z,101393.34
2018-12-06T15:23:07.855Z,101401.14
2018-12-06T15:25:41.768Z,101402.84
2018-12-06T15:28:07.918Z,101399.34
2018-12-06T15:30:38.732Z,101401.14
2018-12-06T15:33:08.753Z,101400.23
2018-12-06T15:35:38.197Z,101396.02
2018-12-06T15:38:08.128Z,101406.02
2018-12-06T15:40:52.776Z,101408.23
2018-12-06T15:43:23.717Z,101397.83
2018-12-06T15:45:52.767Z,101395.23
2018-12-06T15:48:30.630Z,101394.33
2018-12-06T15:50:59.485Z,101394.14
2018-12-06T15:53:29.291Z,101396.34
2018-12-06T15:55:59.339Z,101398.44
2018-12-06T15:58:28.125Z,101398.04
2018-12-06T16:00:56.977Z,101385.55
2018-12-06T16:03:25.837Z,101386.02
2018-12-06T16:05:54.655Z,101372.23
2018-12-06T16:08:24.670Z,101373.54
2018-12-06T16:10:53.500Z,101376.25
2018-12-06T16:13:22.350Z,101376.33
2018-12-06T16:15:51.146Z,101370.66
2018-12-06T16:18:19.963Z,101366.76
2018-12-06T16:20:49.786Z,101360.66
2018-12-06T16:23:18.644Z,101370.73
2018-12-06T16:25:47.475Z,101372.94
2018-12-06T16:28:16.361Z,101379.44
2018-12-06T16:30:45.260Z,101377.23
2018-12-06T16:33:14.139Z,101379.94
2018-12-06T16:35:43.159Z,101375.64
2018-12-06T16:38:11.937Z,101372.22
2018-12-06T16:40:40.781Z,101370.52
2018-12-06T16:43:09.591Z,101360.52
2018-12-06T16:45:38.396Z,101364.93
2018-12-06T16:48:08.589Z,101364.42
2018-12-06T16:50:38.806Z,101365.44
2018-12-06T16:53:08.123Z,101357.53
2018-12-06T16:55:37.623Z,101361.53
2018-12-06T16:58:06.484Z,101356.73
2018-12-06T17:00:35.336Z,101355.44
2018-12-06T17:03:05.379Z,101358.11
2018-12-06T17:05:34.214Z,101352.91
2018-12-06T17:08:03.055Z,101345.52
2018-12-06T17:10:31.985Z,101345.52
2018-12-06T17:13:00.792Z,101337.32
2018-12-06T17:15:29.680Z,101343.92
2018-12-06T17:17:58.531Z,101342.63
2018-12-06T17:20:27.352Z,101348.33
2018-12-06T17:22:56.399Z,101345.73
2018-12-06T17:25:25.216Z,101343.61
2018-12-06T17:27:57.825Z,101341.00
2018-12-06T17:30:26.696Z,101342.92
2018-12-06T17:32:55.671Z,101339.49
2018-12-06T17:35:28.491Z,101339.60
2018-12-06T17:37:57.912Z,101341.09
2018-12-06T17:40:28.261Z,101342.89
2018-12-06T17:42:57.124Z,101344.19
2018-12-06T17:45:27.019Z,101341.20
2018-12-06T17:47:55.977Z,101339.17
2018-12-06T17:50:24.831Z,101343.58
2018-12-06T17:52:53.728Z,101340.55
2018-12-06T17:55:22.565Z,101340.16
2018-12-06T17:57:53.114Z,101341.95
2018-12-06T18:00:22.884Z,101347.66
2018-12-06T18:02:51.760Z,101348.56
2018-12-06T18:05:20.604Z,101343.77
2018-12-06T18:07:49.425Z,101352.86
2018-12-06T18:10:19.244Z,101354.23
2018-12-06T18:12:48.092Z,101351.64
2018-12-06T18:15:16.983Z,101356.44
2018-12-06T18:17:46.313Z,101366.13
2018-12-06T18:20:15.234Z,101362.22
2018-12-06T18:22:45.075Z,101356.63
2018-12-06T18:25:13.944Z,101358.03
2018-12-06T18:27:45.051Z,101346.55
2018-12-06T18:30:13.879Z,101352.33
2018-12-06T18:32:43.896Z,101354.20
2018-12-06T18:35:12.707Z,101345.72
2018-12-06T18:37:41.540Z,101341.72
2018-12-06T18:40:11.338Z,101344.42
2018-12-06T18:42:40.197Z,101351.83
2018-12-06T18:45:09.040Z,101357.50
2018-12-06T18:47:37.927Z,101357.61
2018-12-06T18:50:13.209Z,101360.28
2018-12-06T18:52:42.011Z,101352.91
2018-12-06T18:55:10.916Z,101349.88
2018-12-06T18:57:40.852Z,101352.98
2018-12-06T19:00:10.954Z,101355.58
2018-12-06T19:02:39.823Z,101350.31
2018-12-06T19:05:08.661Z,101356.38
2018-12-06T19:07:39.405Z,101356.88
2018-12-06T19:10:08.255Z,101356.48
2018-12-06T19:12:37.136Z,101351.69
2018-12-06T19:15:05.971Z,101349.98
2018-12-06T19:17:34.873Z,101352.08
2018-12-06T19:20:04.691Z,101347.78
2018-12-06T19:22:33.533Z,101350.09
2018-12-06T19:25:03.339Z,101334.06
2018-12-06T19:27:32.151Z,101330.27
2018-12-06T19:30:01.692Z,101334.96
2018-12-06T19:32:30.524Z,101333.66
2018-12-06T19:34:59.712Z,101329.29
2018-12-06T19:37:28.520Z,101327.98
2018-12-06T19:39:57.392Z,101340.16
2018-12-06T19:42:26.339Z,101328.45
2018-12-06T19:44:55.198Z,101333.19
2018-12-06T19:47:24.100Z,101331.45
2018-12-06T19:49:52.974Z,101318.56
2018-12-06T19:52:21.816Z,101322.36
2018-12-06T19:54:50.638Z,101323.26
2018-12-06T19:57:19.451Z,101315.05
2018-12-06T19:59:49.092Z,101314.26
2018-12-06T20:02:18.544Z,101317.37
2018-12-06T20:04:47.373Z,101313.47
2018-12-06T20:07:16.283Z,101316.47
2018-12-06T20:09:45.116Z,101319.06
2018-12-06T20:12:13.991Z,101318.73
2018-12-06T20:14:42.826Z,101314.77
2018-12-06T20:17:11.661Z,101318.56
2018-12-06T20:19:40.468Z,101319.86
2018-12-06T20:22:09.287Z,101314.16
2018-12-06T20:24:38.327Z,101317.48
2018-12-06T20:27:07.315Z,101326.98
2018-12-06T20:29:42.705Z,101322.10
2018-12-06T20:32:14.619Z,101319.00
2018-12-06T20:34:42.688Z,101317.12
2018-12-06T20:37:12.769Z,101309.20
2018-12-06T20:39:41.612Z,101318.81
2018-12-06T20:42:10.432Z,101308.70
2018-12-06T20:44:39.292Z,101309.53
2018-12-06T20:47:08.191Z,101308.92
2018-12-06T20:49:37.016Z,101315.16
2018-12-06T20:52:06.875Z,101309.53
2018-12-06T20:54:37.539Z,101313.03
2018-12-06T20:57:06.424Z,101307.26
2018-12-06T20:59:35.315Z,101301.16
2018-12-06T21:02:04.130Z,101298.88
2018-12-06T21:04:32.956Z,101303.58
2018-12-06T21:07:01.780Z,101299.49
2018-12-06T21:09:33.149Z,101298.19
2018-12-06T21:12:01.945Z,101291.59
2018-12-06T21:14:30.861Z,101290.72
2018-12-06T21:16:59.737Z,101293.32
2018-12-06T21:19:28.572Z,101292.41
2018-12-06T21:21:57.409Z,101301.91
2018-12-06T21:24:26.328Z,101294.11
2018-12-06T21:26:55.175Z,101293.61
2018-12-06T21:29:24.497Z,101288.41
2018-12-06T21:31:53.338Z,101288.23
2018-12-06T21:34:22.291Z,101288.95
2018-12-06T21:36:51.349Z,101283.64
2018-12-06T21:39:20.258Z,101278.84
2018-12-06T21:41:49.520Z,101275.34
2018-12-06T21:44:18.364Z,101274.55
2018-12-06T21:46:47.424Z,101276.34
2018-12-06T21:49:16.244Z,101279.45
2018-12-06T21:51:45.079Z,101261.55
2018-12-06T21:54:13.913Z,101263.46
2018-12-06T21:56:42.784Z,101268.37
2018-12-06T21:59:11.609Z,101265.70
2018-12-06T22:01:40.458Z,101259.95
2018-12-06T22:04:09.340Z,101259.85
2018-12-06T22:06:38.174Z,101257.36
2018-12-06T22:09:08.256Z,101257.36
2018-12-06T22:11:37.128Z,101256.35
2018-12-06T22:14:05.953Z,101257.65
2018-12-06T22:16:34.798Z,101260.25
2018-12-06T22:19:03.610Z,101261.88
2018-12-06T22:21:32.430Z,101260.46
2018-12-06T22:24:01.283Z,101258.38
2018-12-06T22:26:31.499Z,101252.27
2018-12-06T22:29:00.624Z,101256.17
2018-12-06T22:31:31.503Z,101260.86
2018-12-06T22:34:00.334Z,101252.09
2018-12-06T22:36:29.698Z,101262.88
2018-12-06T22:38:58.527Z,101259.70
2018-12-06T22:41:27.360Z,101260.42
2018-12-06T22:43:56.235Z,101253.42
2018-12-06T22:46:25.243Z,101257.39
2018-12-06T22:48:54.286Z,101245.23
2018-12-06T22:51:25.259Z,101247.83
2018-12-06T22:53:54.337Z,101240.94
2018-12-06T22:56:23.340Z,101233.03
2018-12-06T22:58:52.121Z,101238.55
2018-12-06T23:01:25.149Z,101245.05
2018-12-06T23:03:53.991Z,101239.42
2018-12-06T23:06:23.037Z,101232.05
2018-12-06T23:08:51.835Z,101231.62
2018-12-06T23:11:21.640Z,101238.05
2018-12-06T23:13:52.127Z,101237.03
2018-12-06T23:16:20.992Z,101232.74
2018-12-06T23:18:49.815Z,101227.14
2018-12-06T23:21:19.148Z,101223.25
2018-12-06T23:23:48.116Z,101223.25
2018-12-06T23:26:16.961Z,101224.05
2018-12-06T23:28:45.780Z,101223.64
2018-12-06T23:31:15.487Z,101220.15
2018-12-06T23:33:47.811Z,101215.38
2018-12-06T23:36:16.627Z,101220.07
2018-12-06T23:38:45.447Z,101214.38
2018-12-06T23:41:14.286Z,101208.27
2018-12-06T23:43:43.164Z,101200.48
2018-12-06T23:46:12.989Z,101200.98
2018-12-06T23:48:41.896Z,101193.19
2018-12-06T23:51:22.060Z,101191.78
2018-12-06T23:53:50.869Z,101189.51
2018-12-06T23:56:19.733Z,101186.12
2018-12-06T23:58:48.514Z,101189.11
